sensor_id;sensor_type;location;lat;lon;timestamp;temperature;humidity
10848;DHT22;5477;48.806;9.154;2023-04-25T00:01:36;9.50;99.90
10848;DHT22;5477;48.806;9.154;2023-04-25T00:04:05;9.50;99.90
10848;DHT22;5477;48.806;9.154;2023-04-25T00:06:34;9.50;99.90
10848;DHT22;5477;48.806;9.154;2023-04-25T00:09:02;9.40;99.90
10848;DHT22;5477;48.806;9.154;2023-04-25T00:11:35;9.40;99.90
10848;DHT22;5477;48.806;9.154;2023-04-25T00:14:03;9.40;99.90
10848;DHT22;5477;48.806;9.154;2023-04-25T00:16:31;9.40;99.90
10848;DHT22;5477;48.806;9.154;2023-04-25T00:19:01;9.40;99.90
10848;DHT22;5477;48.806;9.154;2023-04-25T00:21:31;9.40;99.90
10848;DHT22;5477;48.806;9.154;2023-04-25T00:24:00;9.40;99.90
10848;DHT22;5477;48.806;9.154;2023-04-25T00:26:28;9.30;99.90
10848;DHT22;5477;48.806;9.154;2023-04-25T00:28:57;9.40;99.90
10848;DHT22;5477;48.806;9.154;2023-04-25T00:31:25;9.30;99.90
10848;DHT22;5477;48.806;9.154;2023-04-25T00:33:53;9.40;99.90
10848;DHT22;5477;48.806;9.154;2023-04-25T00:36:21;9.40;99.90
10848;DHT22;5477;48.806;9.154;2023-04-25T00:38:50;9.50;99.90
10848;DHT22;5477;48.806;9.154;2023-04-25T00:41:18;9.50;99.90
10848;DHT22;5477;48.806;9.154;2023-04-25T00:43:48;9.40;99.90
10848;DHT22;5477;48.806;9.154;2023-04-25T00:46:18;9.40;99.90
10848;DHT22;5477;48.806;9.154;2023-04-25T00:48:46;9.40;99.90
10848;DHT22;5477;48.806;9.154;2023-04-25T00:51:18;9.40;99.90
10848;DHT22;5477;48.806;9.154;2023-04-25T00:53:47;9.30;99.90
10848;DHT22;5477;48.806;9.154;2023-04-25T00:56:18;9.20;99.90
10848;DHT22;5477;48.806;9.154;2023-04-25T00:58:46;9.20;99.90
10848;DHT22;5477;48.806;9.154;2023-04-25T01:01:14;9.10;99.90
10848;DHT22;5477;48.806;9.154;2023-04-25T01:03:46;9.10;99.90
10848;DHT22;5477;48.806;9.154;2023-04-25T01:06:17;9.10;99.90
10848;DHT22;5477;48.806;9.154;2023-04-25T01:08:45;9.00;99.90
10848;DHT22;5477;48.806;9.154;2023-04-25T01:11:13;9.00;99.90
10848;DHT22;5477;48.806;9.154;2023-04-25T01:13:41;9.00;99.90
10848;DHT22;5477;48.806;9.154;2023-04-25T01:16:09;9.00;99.90
10848;DHT22;5477;48.806;9.154;2023-04-25T01:18:38;9.10;99.90
10848;DHT22;5477;48.806;9.154;2023-04-25T01:21:10;9.10;99.90
10848;DHT22;5477;48.806;9.154;2023-04-25T01:23:39;9.10;99.90
10848;DHT22;5477;48.806;9.154;2023-04-25T01:26:09;9.20;99.90
10848;DHT22;5477;48.806;9.154;2023-04-25T01:28:37;9.20;99.90
10848;DHT22;5477;48.806;9.154;2023-04-25T01:31:08;9.10;99.90
10848;DHT22;5477;48.806;9.154;2023-04-25T01:33:37;9.20;99.90
10848;DHT22;5477;48.806;9.154;2023-04-25T01:36:06;9.10;99.90
10848;DHT22;5477;48.806;9.154;2023-04-25T01:38:36;9.10;99.90
10848;DHT22;5477;48.806;9.154;2023-04-25T01:41:05;9.10;99.90
10848;DHT22;5477;48.806;9.154;2023-04-25T01:43:33;9.10;99.90
10848;DHT22;5477;48.806;9.154;2023-04-25T01:46:01;9.00;99.90
10848;DHT22;5477;48.806;9.154;2023-04-25T01:48:29;9.00;99.90
10848;DHT22;5477;48.806;9.154;2023-04-25T01:50:58;8.90;99.90
10848;DHT22;5477;48.806;9.154;2023-04-25T01:53:27;8.90;99.90
10848;DHT22;5477;48.806;9.154;2023-04-25T01:55:57;8.90;99.90
10848;DHT22;5477;48.806;9.154;2023-04-25T01:58:29;8.90;99.90
10848;DHT22;5477;48.806;9.154;2023-04-25T02:01:12;8.90;99.90
10848;DHT22;5477;48.806;9.154;2023-04-25T02:03:47;8.90;99.90
10848;DHT22;5477;48.806;9.154;2023-04-25T02:06:31;9.00;99.90
10848;DHT22;5477;48.806;9.154;2023-04-25T02:08:58;9.10;99.90
10848;DHT22;5477;48.806;9.154;2023-04-25T02:11:28;9.10;99.90
10848;DHT22;5477;48.806;9.154;2023-04-25T02:14:15;9.20;99.90
10848;DHT22;5477;48.806;9.154;2023-04-25T02:16:52;9.20;99.90
10848;DHT22;5477;48.806;9.154;2023-04-25T02:19:21;9.20;99.90
10848;DHT22;5477;48.806;9.154;2023-04-25T02:21:48;9.10;99.90
10848;DHT22;5477;48.806;9.154;2023-04-25T02:24:16;9.10;99.90
10848;DHT22;5477;48.806;9.154;2023-04-25T02:26:46;9.10;99.90
10848;DHT22;5477;48.806;9.154;2023-04-25T02:29:16;9.00;99.90
10848;DHT22;5477;48.806;9.154;2023-04-25T02:31:44;8.90;99.90
10848;DHT22;5477;48.806;9.154;2023-04-25T02:34:12;8.80;99.90
10848;DHT22;5477;48.806;9.154;2023-04-25T02:36:40;8.70;99.90
10848;DHT22;5477;48.806;9.154;2023-04-25T02:39:08;8.70;99.90
10848;DHT22;5477;48.806;9.154;2023-04-25T02:41:37;8.70;99.90
10848;DHT22;5477;48.806;9.154;2023-04-25T02:44:06;8.90;99.90
10848;DHT22;5477;48.806;9.154;2023-04-25T02:46:34;8.80;99.90
10848;DHT22;5477;48.806;9.154;2023-04-25T02:49:05;8.80;99.90
10848;DHT22;5477;48.806;9.154;2023-04-25T02:51:34;8.80;99.90
10848;DHT22;5477;48.806;9.154;2023-04-25T02:54:02;8.80;99.90
10848;DHT22;5477;48.806;9.154;2023-04-25T02:56:35;8.80;99.90
10848;DHT22;5477;48.806;9.154;2023-04-25T02:59:08;8.80;99.90
10848;DHT22;5477;48.806;9.154;2023-04-25T03:01:36;8.80;99.90
10848;DHT22;5477;48.806;9.154;2023-04-25T03:04:04;8.80;99.90
10848;DHT22;5477;48.806;9.154;2023-04-25T03:06:32;8.80;99.90
10848;DHT22;5477;48.806;9.154;2023-04-25T03:09:00;8.80;99.90
10848;DHT22;5477;48.806;9.154;2023-04-25T03:11:28;8.90;99.90
10848;DHT22;5477;48.806;9.154;2023-04-25T03:13:56;8.90;99.90
10848;DHT22;5477;48.806;9.154;2023-04-25T03:16:25;8.90;99.90
10848;DHT22;5477;48.806;9.154;2023-04-25T03:18:54;9.00;99.90
10848;DHT22;5477;48.806;9.154;2023-04-25T03:21:22;9.00;99.90
10848;DHT22;5477;48.806;9.154;2023-04-25T03:23:50;9.00;99.90
10848;DHT22;5477;48.806;9.154;2023-04-25T03:26:19;9.00;99.90
10848;DHT22;5477;48.806;9.154;2023-04-25T03:28:47;8.90;99.90
10848;DHT22;5477;48.806;9.154;2023-04-25T03:31:16;8.80;99.90
10848;DHT22;5477;48.806;9.154;2023-04-25T03:33:46;8.80;99.90
10848;DHT22;5477;48.806;9.154;2023-04-25T03:36:14;8.90;99.90
10848;DHT22;5477;48.806;9.154;2023-04-25T03:38:42;8.90;99.90
10848;DHT22;5477;48.806;9.154;2023-04-25T03:41:13;9.00;99.90
10848;DHT22;5477;48.806;9.154;2023-04-25T03:43:44;9.00;99.90
10848;DHT22;5477;48.806;9.154;2023-04-25T03:46:13;9.10;99.90
10848;DHT22;5477;48.806;9.154;2023-04-25T03:48:42;9.10;99.90
10848;DHT22;5477;48.806;9.154;2023-04-25T03:51:17;9.10;99.90
10848;DHT22;5477;48.806;9.154;2023-04-25T03:53:45;9.10;99.90
10848;DHT22;5477;48.806;9.154;2023-04-25T03:56:19;9.00;99.90
10848;DHT22;5477;48.806;9.154;2023-04-25T03:58:54;9.00;99.90
10848;DHT22;5477;48.806;9.154;2023-04-25T04:01:27;8.90;99.90
10848;DHT22;5477;48.806;9.154;2023-04-25T04:03:55;8.80;99.90
10848;DHT22;5477;48.806;9.154;2023-04-25T04:06:26;8.80;99.90
10848;DHT22;5477;48.806;9.154;2023-04-25T04:09:03;8.70;99.90
10848;DHT22;5477;48.806;9.154;2023-04-25T04:11:35;8.70;99.90
10848;DHT22;5477;48.806;9.154;2023-04-25T04:14:05;8.70;99.90
10848;DHT22;5477;48.806;9.154;2023-04-25T04:16:33;8.60;99.90
10848;DHT22;5477;48.806;9.154;2023-04-25T04:19:02;8.60;99.90
10848;DHT22;5477;48.806;9.154;2023-04-25T04:21:32;8.60;99.90
10848;DHT22;5477;48.806;9.154;2023-04-25T04:24:00;8.60;99.90
10848;DHT22;5477;48.806;9.154;2023-04-25T04:26:33;8.50;99.90
10848;DHT22;5477;48.806;9.154;2023-04-25T04:29:11;8.50;99.90
10848;DHT22;5477;48.806;9.154;2023-04-25T04:31:57;8.40;99.90
10848;DHT22;5477;48.806;9.154;2023-04-25T04:34:34;8.30;99.90
10848;DHT22;5477;48.806;9.154;2023-04-25T04:37:05;8.30;99.90
10848;DHT22;5477;48.806;9.154;2023-04-25T04:39:35;8.30;99.90
10848;DHT22;5477;48.806;9.154;2023-04-25T04:42:10;8.40;99.90
10848;DHT22;5477;48.806;9.154;2023-04-25T04:44:49;8.40;99.90
10848;DHT22;5477;48.806;9.154;2023-04-25T04:47:42;8.40;99.90
10848;DHT22;5477;48.806;9.154;2023-04-25T04:50:14;8.40;99.90
10848;DHT22;5477;48.806;9.154;2023-04-25T04:53:04;8.50;99.90
10848;DHT22;5477;48.806;9.154;2023-04-25T04:55:41;8.60;99.90
10848;DHT22;5477;48.806;9.154;2023-04-25T04:58:25;8.60;99.90
10848;DHT22;5477;48.806;9.154;2023-04-25T05:01:09;8.70;99.90
10848;DHT22;5477;48.806;9.154;2023-04-25T05:03:59;8.70;99.90
10848;DHT22;5477;48.806;9.154;2023-04-25T05:06:46;8.80;99.90
10848;DHT22;5477;48.806;9.154;2023-04-25T05:09:43;8.80;99.90
10848;DHT22;5477;48.806;9.154;2023-04-25T05:12:32;8.90;99.90
10848;DHT22;5477;48.806;9.154;2023-04-25T05:15:14;9.00;99.90
10848;DHT22;5477;48.806;9.154;2023-04-25T05:18:00;9.10;99.90
10848;DHT22;5477;48.806;9.154;2023-04-25T05:20:38;9.20;99.90
10848;DHT22;5477;48.806;9.154;2023-04-25T05:23:26;9.20;99.90
10848;DHT22;5477;48.806;9.154;2023-04-25T05:26:19;9.30;99.90
10848;DHT22;5477;48.806;9.154;2023-04-25T05:28:54;9.30;99.90
10848;DHT22;5477;48.806;9.154;2023-04-25T05:31:53;9.30;99.90
10848;DHT22;5477;48.806;9.154;2023-04-25T05:34:21;9.20;99.90
10848;DHT22;5477;48.806;9.154;2023-04-25T05:36:56;9.20;99.90
10848;DHT22;5477;48.806;9.154;2023-04-25T05:39:24;9.30;99.90
10848;DHT22;5477;48.806;9.154;2023-04-25T05:42:12;9.20;99.90
10848;DHT22;5477;48.806;9.154;2023-04-25T05:45:07;9.00;99.90
10848;DHT22;5477;48.806;9.154;2023-04-25T05:47:54;9.00;99.90
10848;DHT22;5477;48.806;9.154;2023-04-25T05:50:42;8.80;99.90
10848;DHT22;5477;48.806;9.154;2023-04-25T05:53:34;8.90;99.90
10848;DHT22;5477;48.806;9.154;2023-04-25T05:56:02;8.90;99.90
10848;DHT22;5477;48.806;9.154;2023-04-25T05:58:31;9.00;99.90
10848;DHT22;5477;48.806;9.154;2023-04-25T06:01:00;8.90;99.90
10848;DHT22;5477;48.806;9.154;2023-04-25T06:03:28;8.90;99.90
10848;DHT22;5477;48.806;9.154;2023-04-25T06:05:57;9.00;99.90
10848;DHT22;5477;48.806;9.154;2023-04-25T06:08:26;8.90;99.90
10848;DHT22;5477;48.806;9.154;2023-04-25T06:10:54;9.00;99.90
10848;DHT22;5477;48.806;9.154;2023-04-25T06:13:22;9.00;99.90
10848;DHT22;5477;48.806;9.154;2023-04-25T06:15:52;9.00;99.90
10848;DHT22;5477;48.806;9.154;2023-04-25T06:18:20;9.00;99.90
10848;DHT22;5477;48.806;9.154;2023-04-25T06:20:48;9.10;99.90
10848;DHT22;5477;48.806;9.154;2023-04-25T06:23:17;9.20;99.90
10848;DHT22;5477;48.806;9.154;2023-04-25T06:25:52;9.30;99.90
10848;DHT22;5477;48.806;9.154;2023-04-25T06:28:21;9.40;99.90
10848;DHT22;5477;48.806;9.154;2023-04-25T06:30:51;9.40;99.90
10848;DHT22;5477;48.806;9.154;2023-04-25T06:33:20;9.40;99.90
10848;DHT22;5477;48.806;9.154;2023-04-25T06:35:49;9.30;99.90
10848;DHT22;5477;48.806;9.154;2023-04-25T06:38:22;9.30;99.90
10848;DHT22;5477;48.806;9.154;2023-04-25T06:40:51;9.60;99.90
10848;DHT22;5477;48.806;9.154;2023-04-25T06:43:19;9.60;99.90
10848;DHT22;5477;48.806;9.154;2023-04-25T06:46:10;9.60;99.90
10848;DHT22;5477;48.806;9.154;2023-04-25T06:48:44;9.50;99.90
10848;DHT22;5477;48.806;9.154;2023-04-25T06:51:12;9.50;99.90
10848;DHT22;5477;48.806;9.154;2023-04-25T06:53:41;9.60;99.90
10848;DHT22;5477;48.806;9.154;2023-04-25T06:56:21;9.60;99.90
10848;DHT22;5477;48.806;9.154;2023-04-25T06:58:56;9.70;99.90
10848;DHT22;5477;48.806;9.154;2023-04-25T07:01:38;9.80;99.90
10848;DHT22;5477;48.806;9.154;2023-04-25T07:04:19;9.70;99.90
10848;DHT22;5477;48.806;9.154;2023-04-25T07:06:50;9.80;99.90
10848;DHT22;5477;48.806;9.154;2023-04-25T07:09:23;9.90;99.90
10848;DHT22;5477;48.806;9.154;2023-04-25T07:11:52;9.80;99.90
10848;DHT22;5477;48.806;9.154;2023-04-25T07:14:20;9.80;99.90
10848;DHT22;5477;48.806;9.154;2023-04-25T07:16:49;9.90;99.90
10848;DHT22;5477;48.806;9.154;2023-04-25T07:19:18;10.00;99.90
10848;DHT22;5477;48.806;9.154;2023-04-25T07:21:46;10.10;99.90
10848;DHT22;5477;48.806;9.154;2023-04-25T07:24:15;10.00;99.90
10848;DHT22;5477;48.806;9.154;2023-04-25T07:26:46;10.10;99.90
10848;DHT22;5477;48.806;9.154;2023-04-25T07:29:29;10.20;99.90
10848;DHT22;5477;48.806;9.154;2023-04-25T07:32:01;10.10;99.90
10848;DHT22;5477;48.806;9.154;2023-04-25T07:34:29;10.00;99.90
10848;DHT22;5477;48.806;9.154;2023-04-25T07:36:58;9.90;99.90
10848;DHT22;5477;48.806;9.154;2023-04-25T07:39:33;9.70;99.90
10848;DHT22;5477;48.806;9.154;2023-04-25T07:42:01;9.70;99.90
10848;DHT22;5477;48.806;9.154;2023-04-25T07:44:30;9.70;99.90
10848;DHT22;5477;48.806;9.154;2023-04-25T07:46:58;9.70;99.90
10848;DHT22;5477;48.806;9.154;2023-04-25T07:49:31;9.60;99.90
10848;DHT22;5477;48.806;9.154;2023-04-25T07:51:59;9.50;99.90
10848;DHT22;5477;48.806;9.154;2023-04-25T07:54:27;9.40;99.90
10848;DHT22;5477;48.806;9.154;2023-04-25T07:57:01;9.50;99.90
10848;DHT22;5477;48.806;9.154;2023-04-25T07:59:30;9.40;99.90
10848;DHT22;5477;48.806;9.154;2023-04-25T08:02:01;9.40;99.90
10848;DHT22;5477;48.806;9.154;2023-04-25T08:04:30;9.30;99.90
10848;DHT22;5477;48.806;9.154;2023-04-25T08:07:04;9.30;99.90
10848;DHT22;5477;48.806;9.154;2023-04-25T08:09:40;9.30;99.90
10848;DHT22;5477;48.806;9.154;2023-04-25T08:12:16;9.40;99.90
10848;DHT22;5477;48.806;9.154;2023-04-25T08:14:44;9.40;99.90
10848;DHT22;5477;48.806;9.154;2023-04-25T08:17:12;9.40;99.90
10848;DHT22;5477;48.806;9.154;2023-04-25T08:19:42;9.40;99.90
10848;DHT22;5477;48.806;9.154;2023-04-25T08:22:20;9.40;99.90
10848;DHT22;5477;48.806;9.154;2023-04-25T08:24:54;9.50;99.90
10848;DHT22;5477;48.806;9.154;2023-04-25T08:27:22;9.40;99.90
10848;DHT22;5477;48.806;9.154;2023-04-25T08:29:50;9.30;99.90
10848;DHT22;5477;48.806;9.154;2023-04-25T08:32:19;9.20;99.90
10848;DHT22;5477;48.806;9.154;2023-04-25T08:35:10;9.10;99.90
10848;DHT22;5477;48.806;9.154;2023-04-25T08:37:38;9.00;99.90
10848;DHT22;5477;48.806;9.154;2023-04-25T08:40:15;8.90;99.90
10848;DHT22;5477;48.806;9.154;2023-04-25T08:42:54;9.00;99.90
10848;DHT22;5477;48.806;9.154;2023-04-25T08:45:23;9.10;99.90
10848;DHT22;5477;48.806;9.154;2023-04-25T08:47:52;9.10;99.90
10848;DHT22;5477;48.806;9.154;2023-04-25T08:50:22;9.00;99.90
10848;DHT22;5477;48.806;9.154;2023-04-25T08:52:53;9.10;99.90
10848;DHT22;5477;48.806;9.154;2023-04-25T08:55:22;9.00;99.90
10848;DHT22;5477;48.806;9.154;2023-04-25T08:57:56;9.00;99.90
10848;DHT22;5477;48.806;9.154;2023-04-25T09:00:25;9.00;99.90
10848;DHT22;5477;48.806;9.154;2023-04-25T09:02:56;9.00;99.90
10848;DHT22;5477;48.806;9.154;2023-04-25T09:05:30;9.00;99.90
10848;DHT22;5477;48.806;9.154;2023-04-25T09:08:00;9.10;99.90
10848;DHT22;5477;48.806;9.154;2023-04-25T09:10:28;9.10;99.90
10848;DHT22;5477;48.806;9.154;2023-04-25T09:13:05;9.20;99.90
10848;DHT22;5477;48.806;9.154;2023-04-25T09:15:51;9.20;99.90
10848;DHT22;5477;48.806;9.154;2023-04-25T09:18:46;9.30;99.90
10848;DHT22;5477;48.806;9.154;2023-04-25T09:21:17;9.30;99.90
10848;DHT22;5477;48.806;9.154;2023-04-25T09:23:48;9.30;99.90
10848;DHT22;5477;48.806;9.154;2023-04-25T09:26:20;9.40;99.90
10848;DHT22;5477;48.806;9.154;2023-04-25T09:29:04;9.50;99.90
10848;DHT22;5477;48.806;9.154;2023-04-25T09:31:35;9.60;99.90
10848;DHT22;5477;48.806;9.154;2023-04-25T09:34:04;9.60;99.90
10848;DHT22;5477;48.806;9.154;2023-04-25T09:36:43;9.60;99.90
10848;DHT22;5477;48.806;9.154;2023-04-25T09:39:23;9.60;99.90
10848;DHT22;5477;48.806;9.154;2023-04-25T09:42:00;9.60;99.90
10848;DHT22;5477;48.806;9.154;2023-04-25T09:44:31;9.40;99.90
10848;DHT22;5477;48.806;9.154;2023-04-25T09:46:59;9.40;99.90
10848;DHT22;5477;48.806;9.154;2023-04-25T09:49:28;9.40;99.90
10848;DHT22;5477;48.806;9.154;2023-04-25T09:52:05;9.40;99.90
10848;DHT22;5477;48.806;9.154;2023-04-25T09:54:47;9.50;99.90
10848;DHT22;5477;48.806;9.154;2023-04-25T09:57:22;9.60;99.90
10848;DHT22;5477;48.806;9.154;2023-04-25T09:59:52;9.50;99.90
10848;DHT22;5477;48.806;9.154;2023-04-25T10:02:23;9.60;99.90
10848;DHT22;5477;48.806;9.154;2023-04-25T10:04:55;9.60;99.90
10848;DHT22;5477;48.806;9.154;2023-04-25T10:07:31;9.50;99.90
10848;DHT22;5477;48.806;9.154;2023-04-25T10:10:02;9.50;99.90
10848;DHT22;5477;48.806;9.154;2023-04-25T10:12:32;9.40;99.90
10848;DHT22;5477;48.806;9.154;2023-04-25T10:15:01;9.20;99.90
10848;DHT22;5477;48.806;9.154;2023-04-25T10:17:31;9.30;99.90
10848;DHT22;5477;48.806;9.154;2023-04-25T10:20:01;9.20;99.90
10848;DHT22;5477;48.806;9.154;2023-04-25T10:22:34;9.20;99.90
10848;DHT22;5477;48.806;9.154;2023-04-25T10:25:03;9.40;99.90
10848;DHT22;5477;48.806;9.154;2023-04-25T10:27:34;9.10;99.90
10848;DHT22;5477;48.806;9.154;2023-04-25T10:30:03;9.00;99.90
10848;DHT22;5477;48.806;9.154;2023-04-25T10:32:32;8.90;99.90
10848;DHT22;5477;48.806;9.154;2023-04-25T10:35:11;8.70;99.90
10848;DHT22;5477;48.806;9.154;2023-04-25T10:37:56;8.60;99.90
10848;DHT22;5477;48.806;9.154;2023-04-25T10:40:25;8.60;99.90
10848;DHT22;5477;48.806;9.154;2023-04-25T10:42:53;8.60;99.90
10848;DHT22;5477;48.806;9.154;2023-04-25T10:45:22;8.50;99.90
10848;DHT22;5477;48.806;9.154;2023-04-25T10:47:50;8.40;99.90
10848;DHT22;5477;48.806;9.154;2023-04-25T10:50:18;8.40;99.90
10848;DHT22;5477;48.806;9.154;2023-04-25T10:52:47;8.50;99.90
10848;DHT22;5477;48.806;9.154;2023-04-25T10:55:15;8.50;99.90
10848;DHT22;5477;48.806;9.154;2023-04-25T10:57:44;8.60;99.90
10848;DHT22;5477;48.806;9.154;2023-04-25T11:00:16;8.70;99.90
10848;DHT22;5477;48.806;9.154;2023-04-25T11:02:46;8.60;99.90
10848;DHT22;5477;48.806;9.154;2023-04-25T11:05:22;8.60;99.90
10848;DHT22;5477;48.806;9.154;2023-04-25T11:07:53;8.70;99.90
10848;DHT22;5477;48.806;9.154;2023-04-25T11:10:34;8.80;99.90
10848;DHT22;5477;48.806;9.154;2023-04-25T11:13:03;8.70;99.90
10848;DHT22;5477;48.806;9.154;2023-04-25T11:15:31;8.60;99.90
10848;DHT22;5477;48.806;9.154;2023-04-25T11:17:59;8.60;99.90
10848;DHT22;5477;48.806;9.154;2023-04-25T11:20:28;8.60;99.90
10848;DHT22;5477;48.806;9.154;2023-04-25T11:22:59;8.70;99.90
10848;DHT22;5477;48.806;9.154;2023-04-25T11:25:28;8.60;99.90
10848;DHT22;5477;48.806;9.154;2023-04-25T11:27:58;8.70;99.90
10848;DHT22;5477;48.806;9.154;2023-04-25T11:30:27;8.60;99.90
10848;DHT22;5477;48.806;9.154;2023-04-25T11:32:57;8.60;99.90
10848;DHT22;5477;48.806;9.154;2023-04-25T11:35:25;8.50;99.90
10848;DHT22;5477;48.806;9.154;2023-04-25T11:37:53;8.30;99.90
10848;DHT22;5477;48.806;9.154;2023-04-25T11:40:22;8.20;99.90
10848;DHT22;5477;48.806;9.154;2023-04-25T11:42:51;8.30;99.90
10848;DHT22;5477;48.806;9.154;2023-04-25T11:45:22;8.30;99.90
10848;DHT22;5477;48.806;9.154;2023-04-25T11:47:51;8.50;99.90
10848;DHT22;5477;48.806;9.154;2023-04-25T11:50:19;8.40;99.90
10848;DHT22;5477;48.806;9.154;2023-04-25T11:52:48;8.20;99.90
10848;DHT22;5477;48.806;9.154;2023-04-25T11:55:17;8.20;99.90
10848;DHT22;5477;48.806;9.154;2023-04-25T11:57:48;8.30;99.90
10848;DHT22;5477;48.806;9.154;2023-04-25T12:00:18;8.30;99.90
10848;DHT22;5477;48.806;9.154;2023-04-25T12:02:51;8.40;99.90
10848;DHT22;5477;48.806;9.154;2023-04-25T12:05:23;8.50;99.90
10848;DHT22;5477;48.806;9.154;2023-04-25T12:07:54;8.70;99.90
10848;DHT22;5477;48.806;9.154;2023-04-25T12:10:22;8.80;99.90
10848;DHT22;5477;48.806;9.154;2023-04-25T12:12:53;8.90;99.90
10848;DHT22;5477;48.806;9.154;2023-04-25T12:15:24;9.00;99.90
10848;DHT22;5477;48.806;9.154;2023-04-25T12:17:53;9.10;99.90
10848;DHT22;5477;48.806;9.154;2023-04-25T12:20:25;9.00;99.90
10848;DHT22;5477;48.806;9.154;2023-04-25T12:22:53;9.10;99.90
10848;DHT22;5477;48.806;9.154;2023-04-25T12:25:35;9.10;99.90
10848;DHT22;5477;48.806;9.154;2023-04-25T12:28:16;9.00;99.90
10848;DHT22;5477;48.806;9.154;2023-04-25T12:30:56;9.00;99.90
10848;DHT22;5477;48.806;9.154;2023-04-25T12:33:28;9.00;99.90
10848;DHT22;5477;48.806;9.154;2023-04-25T12:35:57;9.00;99.90
10848;DHT22;5477;48.806;9.154;2023-04-25T12:38:26;9.10;99.90
10848;DHT22;5477;48.806;9.154;2023-04-25T12:40:56;9.30;99.90
10848;DHT22;5477;48.806;9.154;2023-04-25T12:43:26;9.40;99.90
10848;DHT22;5477;48.806;9.154;2023-04-25T12:45:55;9.60;99.90
10848;DHT22;5477;48.806;9.154;2023-04-25T12:48:23;10.00;99.90
10848;DHT22;5477;48.806;9.154;2023-04-25T12:50:51;10.40;99.90
10848;DHT22;5477;48.806;9.154;2023-04-25T12:53:20;10.70;99.90
10848;DHT22;5477;48.806;9.154;2023-04-25T12:55:49;10.70;99.90
10848;DHT22;5477;48.806;9.154;2023-04-25T12:58:18;10.70;99.90
10848;DHT22;5477;48.806;9.154;2023-04-25T13:00:48;10.80;99.90
10848;DHT22;5477;48.806;9.154;2023-04-25T13:03:16;11.10;99.90
10848;DHT22;5477;48.806;9.154;2023-04-25T13:05:44;11.10;99.90
10848;DHT22;5477;48.806;9.154;2023-04-25T13:08:13;11.10;99.90
10848;DHT22;5477;48.806;9.154;2023-04-25T13:10:41;10.80;99.90
10848;DHT22;5477;48.806;9.154;2023-04-25T13:13:08;10.80;99.90
10848;DHT22;5477;48.806;9.154;2023-04-25T13:15:36;10.80;99.90
10848;DHT22;5477;48.806;9.154;2023-04-25T13:18:06;10.80;99.90
10848;DHT22;5477;48.806;9.154;2023-04-25T13:20:34;11.10;99.90
10848;DHT22;5477;48.806;9.154;2023-04-25T13:23:02;11.20;99.90
10848;DHT22;5477;48.806;9.154;2023-04-25T13:25:30;11.10;99.90
10848;DHT22;5477;48.806;9.154;2023-04-25T13:27:58;11.20;99.90
10848;DHT22;5477;48.806;9.154;2023-04-25T13:30:26;11.30;99.90
10848;DHT22;5477;48.806;9.154;2023-04-25T13:32:54;11.50;99.90
10848;DHT22;5477;48.806;9.154;2023-04-25T13:35:25;11.40;99.90
10848;DHT22;5477;48.806;9.154;2023-04-25T13:37:53;11.40;99.90
10848;DHT22;5477;48.806;9.154;2023-04-25T13:40:20;11.40;99.90
10848;DHT22;5477;48.806;9.154;2023-04-25T13:42:51;11.40;99.90
10848;DHT22;5477;48.806;9.154;2023-04-25T13:45:19;11.40;99.90
10848;DHT22;5477;48.806;9.154;2023-04-25T13:47:47;11.60;99.90
10848;DHT22;5477;48.806;9.154;2023-04-25T13:50:16;11.70;99.90
10848;DHT22;5477;48.806;9.154;2023-04-25T13:52:45;11.90;99.90
10848;DHT22;5477;48.806;9.154;2023-04-25T13:55:13;12.00;99.90
10848;DHT22;5477;48.806;9.154;2023-04-25T13:57:41;12.40;99.90
10848;DHT22;5477;48.806;9.154;2023-04-25T14:00:11;12.40;99.90
10848;DHT22;5477;48.806;9.154;2023-04-25T14:02:39;12.40;99.90
10848;DHT22;5477;48.806;9.154;2023-04-25T14:05:08;12.30;99.90
10848;DHT22;5477;48.806;9.154;2023-04-25T14:07:36;12.10;99.90
10848;DHT22;5477;48.806;9.154;2023-04-25T14:10:07;12.00;99.90
10848;DHT22;5477;48.806;9.154;2023-04-25T14:12:35;11.90;99.90
10848;DHT22;5477;48.806;9.154;2023-04-25T14:15:04;12.40;99.90
10848;DHT22;5477;48.806;9.154;2023-04-25T14:17:32;13.30;99.90
10848;DHT22;5477;48.806;9.154;2023-04-25T14:20:00;14.20;99.90
10848;DHT22;5477;48.806;9.154;2023-04-25T14:22:27;14.90;99.90
10848;DHT22;5477;48.806;9.154;2023-04-25T14:24:55;15.60;99.90
10848;DHT22;5477;48.806;9.154;2023-04-25T14:27:25;15.50;99.90
10848;DHT22;5477;48.806;9.154;2023-04-25T14:29:55;15.40;99.90
10848;DHT22;5477;48.806;9.154;2023-04-25T14:32:23;15.50;99.90
10848;DHT22;5477;48.806;9.154;2023-04-25T14:34:50;15.30;99.90
10848;DHT22;5477;48.806;9.154;2023-04-25T14:37:18;15.20;99.90
10848;DHT22;5477;48.806;9.154;2023-04-25T14:39:46;15.00;99.90
10848;DHT22;5477;48.806;9.154;2023-04-25T14:42:14;14.80;99.90
10848;DHT22;5477;48.806;9.154;2023-04-25T14:44:44;14.70;99.90
10848;DHT22;5477;48.806;9.154;2023-04-25T14:47:12;14.70;99.90
10848;DHT22;5477;48.806;9.154;2023-04-25T14:49:40;14.40;99.90
10848;DHT22;5477;48.806;9.154;2023-04-25T14:52:08;14.20;99.90
10848;DHT22;5477;48.806;9.154;2023-04-25T14:54:36;13.70;99.90
10848;DHT22;5477;48.806;9.154;2023-04-25T14:57:04;13.60;99.90
10848;DHT22;5477;48.806;9.154;2023-04-25T14:59:32;13.40;99.90
10848;DHT22;5477;48.806;9.154;2023-04-25T15:02:01;13.30;99.90
10848;DHT22;5477;48.806;9.154;2023-04-25T15:04:29;13.30;99.90
10848;DHT22;5477;48.806;9.154;2023-04-25T15:06:58;13.40;99.90
10848;DHT22;5477;48.806;9.154;2023-04-25T15:09:26;14.10;99.90
10848;DHT22;5477;48.806;9.154;2023-04-25T15:11:55;14.80;99.90
10848;DHT22;5477;48.806;9.154;2023-04-25T15:14:24;15.50;99.90
10848;DHT22;5477;48.806;9.154;2023-04-25T15:16:52;15.40;99.90
10848;DHT22;5477;48.806;9.154;2023-04-25T15:19:21;15.20;99.90
10848;DHT22;5477;48.806;9.154;2023-04-25T15:21:49;15.10;99.90
10848;DHT22;5477;48.806;9.154;2023-04-25T15:24:17;15.80;99.90
10848;DHT22;5477;48.806;9.154;2023-04-25T15:26:45;17.20;99.90
10848;DHT22;5477;48.806;9.154;2023-04-25T15:29:13;18.20;99.00
10848;DHT22;5477;48.806;9.154;2023-04-25T15:31:42;18.60;97.70
10848;DHT22;5477;48.806;9.154;2023-04-25T15:34:10;17.80;97.10
10848;DHT22;5477;48.806;9.154;2023-04-25T15:36:39;16.80;97.70
10848;DHT22;5477;48.806;9.154;2023-04-25T15:39:07;16.20;99.00
10848;DHT22;5477;48.806;9.154;2023-04-25T15:41:36;15.70;99.90
10848;DHT22;5477;48.806;9.154;2023-04-25T15:44:04;15.10;99.90
10848;DHT22;5477;48.806;9.154;2023-04-25T15:46:33;14.50;99.90
10848;DHT22;5477;48.806;9.154;2023-04-25T15:49:01;13.70;99.90
10848;DHT22;5477;48.806;9.154;2023-04-25T15:51:29;13.60;99.90
10848;DHT22;5477;48.806;9.154;2023-04-25T15:53:58;13.60;99.90
10848;DHT22;5477;48.806;9.154;2023-04-25T15:56:28;13.40;99.90
10848;DHT22;5477;48.806;9.154;2023-04-25T15:58:56;13.40;99.90
10848;DHT22;5477;48.806;9.154;2023-04-25T16:01:24;13.50;99.90
10848;DHT22;5477;48.806;9.154;2023-04-25T16:03:56;14.00;99.90
10848;DHT22;5477;48.806;9.154;2023-04-25T16:06:25;14.50;99.90
10848;DHT22;5477;48.806;9.154;2023-04-25T16:08:54;14.40;99.90
10848;DHT22;5477;48.806;9.154;2023-04-25T16:11:24;13.80;99.90
10848;DHT22;5477;48.806;9.154;2023-04-25T16:13:52;13.50;99.90
10848;DHT22;5477;48.806;9.154;2023-04-25T16:16:20;13.00;99.90
10848;DHT22;5477;48.806;9.154;2023-04-25T16:18:48;12.90;99.90
10848;DHT22;5477;48.806;9.154;2023-04-25T16:21:16;12.90;99.90
10848;DHT22;5477;48.806;9.154;2023-04-25T16:23:44;12.90;99.90